sensor_id;sensor_type;location;lat;lon;timestamp;P1;durP1;ratioP1;P2;durP2;ratioP2
33740;SDS011;20065;48.380;10.892;2022-09-20T00:02:39;5.80;;;2.40;;
33740;SDS011;20065;48.380;10.892;2022-09-20T00:05:26;6.88;;;2.92;;
33740;SDS011;20065;48.380;10.892;2022-09-20T00:08:13;6.32;;;2.85;;
33740;SDS011;20065;48.380;10.892;2022-09-20T00:11:02;10.57;;;3.20;;
33740;SDS011;20065;48.380;10.892;2022-09-20T00:13:51;5.47;;;2.97;;
33740;SDS011;20065;48.380;10.892;2022-09-20T00:16:40;9.18;;;4.97;;
33740;SDS011;20065;48.380;10.892;2022-09-20T00:19:26;7.70;;;3.35;;
33740;SDS011;20065;48.380;10.892;2022-09-20T00:22:12;7.07;;;2.45;;
33740;SDS011;20065;48.380;10.892;2022-09-20T00:24:58;4.82;;;2.47;;
33740;SDS011;20065;48.380;10.892;2022-09-20T00:27:45;7.28;;;2.85;;
33740;SDS011;20065;48.380;10.892;2022-09-20T00:30:31;9.60;;;2.80;;
33740;SDS011;20065;48.380;10.892;2022-09-20T00:33:18;6.15;;;2.40;;
33740;SDS011;20065;48.380;10.892;2022-09-20T00:36:05;3.85;;;2.58;;
33740;SDS011;20065;48.380;10.892;2022-09-20T00:38:55;6.28;;;2.80;;
33740;SDS011;20065;48.380;10.892;2022-09-20T00:41:42;6.65;;;3.47;;
33740;SDS011;20065;48.380;10.892;2022-09-20T00:47:34;5.93;;;3.60;;
33740;SDS011;20065;48.380;10.892;2022-09-20T00:56:10;4.38;;;2.70;;
33740;SDS011;20065;48.380;10.892;2022-09-20T00:59:05;10.02;;;3.13;;
33740;SDS011;20065;48.380;10.892;2022-09-20T01:02:19;6.40;;;2.97;;
33740;SDS011;20065;48.380;10.892;2022-09-20T01:05:09;6.72;;;2.90;;
33740;SDS011;20065;48.380;10.892;2022-09-20T01:07:56;4.50;;;2.60;;
33740;SDS011;20065;48.380;10.892;2022-09-20T01:10:43;8.20;;;2.92;;
33740;SDS011;20065;48.380;10.892;2022-09-20T01:13:29;6.40;;;3.05;;
33740;SDS011;20065;48.380;10.892;2022-09-20T01:16:15;5.45;;;3.25;;
33740;SDS011;20065;48.380;10.892;2022-09-20T01:19:04;6.93;;;3.03;;
33740;SDS011;20065;48.380;10.892;2022-09-20T01:22:01;5.45;;;3.03;;
33740;SDS011;20065;48.380;10.892;2022-09-20T01:27:56;17.05;;;5.07;;
33740;SDS011;20065;48.380;10.892;2022-09-20T01:30:42;8.45;;;3.25;;
33740;SDS011;20065;48.380;10.892;2022-09-20T01:34:01;4.45;;;3.13;;
33740;SDS011;20065;48.380;10.892;2022-09-20T01:37:15;7.00;;;3.33;;
33740;SDS011;20065;48.380;10.892;2022-09-20T01:49:29;6.93;;;3.53;;
33740;SDS011;20065;48.380;10.892;2022-09-20T02:01:37;5.22;;;3.45;;
33740;SDS011;20065;48.380;10.892;2022-09-20T02:15:07;8.27;;;3.10;;
33740;SDS011;20065;48.380;10.892;2022-09-20T02:21:36;6.20;;;3.20;;
33740;SDS011;20065;48.380;10.892;2022-09-20T02:33:44;5.00;;;2.95;;
33740;SDS011;20065;48.380;10.892;2022-09-20T02:46:01;9.07;;;3.47;;
33740;SDS011;20065;48.380;10.892;2022-09-20T02:49:01;7.40;;;3.03;;
33740;SDS011;20065;48.380;10.892;2022-09-20T02:52:15;5.85;;;3.28;;
33740;SDS011;20065;48.380;10.892;2022-09-20T02:58:29;6.55;;;2.90;;
33740;SDS011;20065;48.380;10.892;2022-09-20T03:01:22;4.20;;;2.60;;
33740;SDS011;20065;48.380;10.892;2022-09-20T03:10:24;4.95;;;2.70;;
33740;SDS011;20065;48.380;10.892;2022-09-20T03:19:59;6.35;;;2.50;;
33740;SDS011;20065;48.380;10.892;2022-09-20T03:32:48;7.75;;;3.83;;
33740;SDS011;20065;48.380;10.892;2022-09-20T03:42:14;6.40;;;4.03;;
33740;SDS011;20065;48.380;10.892;2022-09-20T04:00:51;8.38;;;3.78;;
33740;SDS011;20065;48.380;10.892;2022-09-20T04:03:33;14.52;;;5.68;;
33740;SDS011;20065;48.380;10.892;2022-09-20T04:16:58;6.43;;;3.33;;
33740;SDS011;20065;48.380;10.892;2022-09-20T04:20:09;6.40;;;3.22;;
33740;SDS011;20065;48.380;10.892;2022-09-20T04:26:39;11.75;;;3.28;;
33740;SDS011;20065;48.380;10.892;2022-09-20T04:29:48;8.15;;;3.13;;
33740;SDS011;20065;48.380;10.892;2022-09-20T05:01:02;11.40;;;3.25;;
33740;SDS011;20065;48.380;10.892;2022-09-20T05:29:13;8.50;;;3.70;;
33740;SDS011;20065;48.380;10.892;2022-09-20T05:41:02;8.00;;;3.40;;
33740;SDS011;20065;48.380;10.892;2022-09-20T06:04:53;7.25;;;3.80;;
33740;SDS011;20065;48.380;10.892;2022-09-20T06:07:51;10.10;;;4.30;;
33740;SDS011;20065;48.380;10.892;2022-09-20T06:13:51;7.68;;;3.50;;
33740;SDS011;20065;48.380;10.892;2022-09-20T06:17:10;7.10;;;3.50;;
33740;SDS011;20065;48.380;10.892;2022-09-20T06:20:15;9.02;;;4.78;;
33740;SDS011;20065;48.380;10.892;2022-09-20T06:23:19;5.95;;;3.10;;
33740;SDS011;20065;48.380;10.892;2022-09-20T06:26:07;8.40;;;3.67;;
33740;SDS011;20065;48.380;10.892;2022-09-20T06:29:00;5.85;;;3.50;;
33740;SDS011;20065;48.380;10.892;2022-09-20T06:31:51;11.73;;;4.00;;
33740;SDS011;20065;48.380;10.892;2022-09-20T06:34:38;7.93;;;3.55;;
33740;SDS011;20065;48.380;10.892;2022-09-20T06:40:34;5.72;;;3.67;;
33740;SDS011;20065;48.380;10.892;2022-09-20T06:43:46;7.68;;;3.78;;
33740;SDS011;20065;48.380;10.892;2022-09-20T06:46:33;7.13;;;3.42;;
33740;SDS011;20065;48.380;10.892;2022-09-20T06:49:21;11.23;;;4.10;;
33740;SDS011;20065;48.380;10.892;2022-09-20T06:52:15;7.75;;;3.25;;
33740;SDS011;20065;48.380;10.892;2022-09-20T06:55:03;8.35;;;3.92;;
33740;SDS011;20065;48.380;10.892;2022-09-20T06:57:51;8.77;;;4.25;;
33740;SDS011;20065;48.380;10.892;2022-09-20T07:00:38;10.00;;;3.85;;
33740;SDS011;20065;48.380;10.892;2022-09-20T07:03:24;12.30;;;3.90;;
33740;SDS011;20065;48.380;10.892;2022-09-20T07:06:11;10.13;;;4.38;;
33740;SDS011;20065;48.380;10.892;2022-09-20T07:08:57;10.38;;;3.67;;
33740;SDS011;20065;48.380;10.892;2022-09-20T07:11:43;10.20;;;3.65;;
33740;SDS011;20065;48.380;10.892;2022-09-20T07:14:30;10.88;;;4.45;;
33740;SDS011;20065;48.380;10.892;2022-09-20T07:17:16;10.93;;;3.80;;
33740;SDS011;20065;48.380;10.892;2022-09-20T07:20:02;9.30;;;4.35;;
33740;SDS011;20065;48.380;10.892;2022-09-20T07:22:49;8.95;;;3.45;;
33740;SDS011;20065;48.380;10.892;2022-09-20T07:25:36;11.88;;;3.70;;
33740;SDS011;20065;48.380;10.892;2022-09-20T07:28:22;7.85;;;4.00;;
33740;SDS011;20065;48.380;10.892;2022-09-20T07:31:08;11.82;;;4.70;;
33740;SDS011;20065;48.380;10.892;2022-09-20T07:33:55;8.98;;;4.00;;
33740;SDS011;20065;48.380;10.892;2022-09-20T07:36:41;11.55;;;3.92;;
33740;SDS011;20065;48.380;10.892;2022-09-20T07:39:27;11.60;;;3.70;;
33740;SDS011;20065;48.380;10.892;2022-09-20T07:42:13;13.65;;;4.28;;
33740;SDS011;20065;48.380;10.892;2022-09-20T07:44:59;8.23;;;3.60;;
33740;SDS011;20065;48.380;10.892;2022-09-20T07:47:47;13.60;;;6.07;;
33740;SDS011;20065;48.380;10.892;2022-09-20T07:50:33;10.43;;;5.05;;
33740;SDS011;20065;48.380;10.892;2022-09-20T07:53:20;10.77;;;5.25;;
33740;SDS011;20065;48.380;10.892;2022-09-20T07:56:08;15.88;;;4.75;;
33740;SDS011;20065;48.380;10.892;2022-09-20T07:58:56;14.63;;;4.85;;
33740;SDS011;20065;48.380;10.892;2022-09-20T08:01:42;14.68;;;5.20;;
33740;SDS011;20065;48.380;10.892;2022-09-20T08:04:28;12.07;;;5.65;;
33740;SDS011;20065;48.380;10.892;2022-09-20T08:07:14;10.50;;;5.35;;
33740;SDS011;20065;48.380;10.892;2022-09-20T08:10:01;14.90;;;7.10;;
33740;SDS011;20065;48.380;10.892;2022-09-20T08:12:48;18.02;;;5.32;;
33740;SDS011;20065;48.380;10.892;2022-09-20T08:15:34;18.88;;;5.03;;
33740;SDS011;20065;48.380;10.892;2022-09-20T08:18:21;12.63;;;5.40;;
33740;SDS011;20065;48.380;10.892;2022-09-20T08:21:07;10.77;;;5.70;;
33740;SDS011;20065;48.380;10.892;2022-09-20T08:23:54;17.75;;;5.18;;
33740;SDS011;20065;48.380;10.892;2022-09-20T08:26:40;9.95;;;4.55;;
33740;SDS011;20065;48.380;10.892;2022-09-20T08:29:28;10.48;;;4.75;;
33740;SDS011;20065;48.380;10.892;2022-09-20T08:32:14;8.00;;;4.80;;
33740;SDS011;20065;48.380;10.892;2022-09-20T08:35:00;11.45;;;4.63;;
33740;SDS011;20065;48.380;10.892;2022-09-20T08:37:46;9.05;;;4.20;;
33740;SDS011;20065;48.380;10.892;2022-09-20T08:40:32;13.40;;;4.75;;
33740;SDS011;20065;48.380;10.892;2022-09-20T08:43:21;7.68;;;3.90;;
33740;SDS011;20065;48.380;10.892;2022-09-20T08:46:12;7.20;;;4.10;;
33740;SDS011;20065;48.380;10.892;2022-09-20T08:49:05;10.70;;;3.88;;
33740;SDS011;20065;48.380;10.892;2022-09-20T08:51:52;8.50;;;4.00;;
33740;SDS011;20065;48.380;10.892;2022-09-20T08:54:42;10.52;;;4.78;;
33740;SDS011;20065;48.380;10.892;2022-09-20T08:57:31;14.50;;;4.68;;
33740;SDS011;20065;48.380;10.892;2022-09-20T09:00:19;10.52;;;5.05;;
33740;SDS011;20065;48.380;10.892;2022-09-20T09:03:12;7.22;;;3.92;;
33740;SDS011;20065;48.380;10.892;2022-09-20T09:06:01;11.68;;;3.58;;
33740;SDS011;20065;48.380;10.892;2022-09-20T09:08:47;11.55;;;3.65;;
33740;SDS011;20065;48.380;10.892;2022-09-20T09:11:36;6.55;;;3.35;;
33740;SDS011;20065;48.380;10.892;2022-09-20T09:14:27;14.27;;;4.22;;
33740;SDS011;20065;48.380;10.892;2022-09-20T09:17:34;8.50;;;3.70;;
33740;SDS011;20065;48.380;10.892;2022-09-20T09:20:20;9.23;;;3.90;;
33740;SDS011;20065;48.380;10.892;2022-09-20T09:23:08;9.40;;;3.97;;
33740;SDS011;20065;48.380;10.892;2022-09-20T09:26:28;9.30;;;4.07;;
33740;SDS011;20065;48.380;10.892;2022-09-20T09:29:23;10.52;;;3.65;;
33740;SDS011;20065;48.380;10.892;2022-09-20T09:32:26;5.30;;;3.10;;
33740;SDS011;20065;48.380;10.892;2022-09-20T09:35:21;7.55;;;2.90;;
33740;SDS011;20065;48.380;10.892;2022-09-20T09:38:17;10.37;;;3.30;;
33740;SDS011;20065;48.380;10.892;2022-09-20T09:41:21;15.27;;;3.53;;
33740;SDS011;20065;48.380;10.892;2022-09-20T09:44:21;7.93;;;3.47;;
33740;SDS011;20065;48.380;10.892;2022-09-20T09:47:22;8.43;;;4.25;;
33740;SDS011;20065;48.380;10.892;2022-09-20T09:50:21;13.07;;;4.70;;
33740;SDS011;20065;48.380;10.892;2022-09-20T09:53:17;7.70;;;2.87;;
33740;SDS011;20065;48.380;10.892;2022-09-20T09:56:24;13.90;;;3.83;;
33740;SDS011;20065;48.380;10.892;2022-09-20T10:09:14;8.50;;;3.80;;
33740;SDS011;20065;48.380;10.892;2022-09-20T10:15:27;9.83;;;2.90;;
33740;SDS011;20065;48.380;10.892;2022-09-20T10:24:42;7.17;;;2.90;;
33740;SDS011;20065;48.380;10.892;2022-09-20T10:27:36;18.77;;;3.30;;
33740;SDS011;20065;48.380;10.892;2022-09-20T10:30:43;10.50;;;3.40;;
33740;SDS011;20065;48.380;10.892;2022-09-20T10:36:52;8.77;;;2.17;;
33740;SDS011;20065;48.380;10.892;2022-09-20T10:39:41;7.53;;;2.00;;
33740;SDS011;20065;48.380;10.892;2022-09-20T10:42:41;9.80;;;2.40;;
33740;SDS011;20065;48.380;10.892;2022-09-20T11:00:48;8.90;;;1.80;;
33740;SDS011;20065;48.380;10.892;2022-09-20T11:03:55;6.73;;;1.77;;
33740;SDS011;20065;48.380;10.892;2022-09-20T11:10:13;7.03;;;1.73;;
33740;SDS011;20065;48.380;10.892;2022-09-20T11:13:54;5.43;;;1.50;;
33740;SDS011;20065;48.380;10.892;2022-09-20T11:16:34;8.43;;;1.93;;
33740;SDS011;20065;48.380;10.892;2022-09-20T11:19:30;4.77;;;1.87;;
33740;SDS011;20065;48.380;10.892;2022-09-20T11:22:37;4.40;;;1.80;;
33740;SDS011;20065;48.380;10.892;2022-09-20T11:25:36;4.90;;;1.50;;
33740;SDS011;20065;48.380;10.892;2022-09-20T11:28:27;5.13;;;1.30;;
33740;SDS011;20065;48.380;10.892;2022-09-20T11:31:20;3.80;;;1.20;;
33740;SDS011;20065;48.380;10.892;2022-09-20T11:34:13;4.40;;;1.40;;
33740;SDS011;20065;48.380;10.892;2022-09-20T11:37:01;5.47;;;1.60;;
33740;SDS011;20065;48.380;10.892;2022-09-20T11:39:49;6.27;;;1.77;;
33740;SDS011;20065;48.380;10.892;2022-09-20T11:42:40;5.03;;;1.70;;
33740;SDS011;20065;48.380;10.892;2022-09-20T11:45:27;6.30;;;1.70;;
33740;SDS011;20065;48.380;10.892;2022-09-20T11:48:20;3.93;;;1.33;;
33740;SDS011;20065;48.380;10.892;2022-09-20T11:51:15;7.90;;;2.10;;
33740;SDS011;20065;48.380;10.892;2022-09-20T11:57:10;7.27;;;1.77;;
33740;SDS011;20065;48.380;10.892;2022-09-20T12:00:01;7.77;;;2.13;;
33740;SDS011;20065;48.380;10.892;2022-09-20T12:02:57;12.83;;;2.60;;
33740;SDS011;20065;48.380;10.892;2022-09-20T12:05:44;7.30;;;1.83;;
33740;SDS011;20065;48.380;10.892;2022-09-20T12:08:32;5.77;;;1.73;;
33740;SDS011;20065;48.380;10.892;2022-09-20T12:11:29;3.50;;;1.43;;
33740;SDS011;20065;48.380;10.892;2022-09-20T12:14:27;5.10;;;1.77;;
33740;SDS011;20065;48.380;10.892;2022-09-20T12:41:16;8.57;;;1.73;;
33740;SDS011;20065;48.380;10.892;2022-09-20T12:44:05;7.00;;;1.67;;
33740;SDS011;20065;48.380;10.892;2022-09-20T12:47:50;5.43;;;1.60;;
33740;SDS011;20065;48.380;10.892;2022-09-20T12:50:37;5.17;;;1.67;;
33740;SDS011;20065;48.380;10.892;2022-09-20T12:53:42;8.33;;;2.87;;
33740;SDS011;20065;48.380;10.892;2022-09-20T12:56:42;7.07;;;1.47;;
33740;SDS011;20065;48.380;10.892;2022-09-20T12:59:31;4.10;;;1.43;;
33740;SDS011;20065;48.380;10.892;2022-09-20T13:05:44;5.87;;;1.40;;
33740;SDS011;20065;48.380;10.892;2022-09-20T13:08:42;8.00;;;1.20;;
33740;SDS011;20065;48.380;10.892;2022-09-20T13:11:37;5.70;;;1.27;;
33740;SDS011;20065;48.380;10.892;2022-09-20T13:14:33;5.83;;;1.50;;
33740;SDS011;20065;48.380;10.892;2022-09-20T13:17:25;12.13;;;1.60;;
33740;SDS011;20065;48.380;10.892;2022-09-20T13:20:21;8.33;;;1.57;;
33740;SDS011;20065;48.380;10.892;2022-09-20T13:23:16;5.70;;;1.27;;
33740;SDS011;20065;48.380;10.892;2022-09-20T13:26:13;5.73;;;1.50;;
33740;SDS011;20065;48.380;10.892;2022-09-20T13:29:03;3.13;;;0.73;;
33740;SDS011;20065;48.380;10.892;2022-09-20T13:31:54;5.83;;;1.37;;
33740;SDS011;20065;48.380;10.892;2022-09-20T13:34:41;5.67;;;1.50;;
33740;SDS011;20065;48.380;10.892;2022-09-20T13:37:27;6.60;;;1.23;;
33740;SDS011;20065;48.380;10.892;2022-09-20T13:40:32;3.77;;;1.57;;
33740;SDS011;20065;48.380;10.892;2022-09-20T13:43:40;9.43;;;1.50;;
33740;SDS011;20065;48.380;10.892;2022-09-20T13:46:29;4.70;;;1.50;;
33740;SDS011;20065;48.380;10.892;2022-09-20T13:49:17;4.67;;;1.40;;
33740;SDS011;20065;48.380;10.892;2022-09-20T13:52:42;6.80;;;1.43;;
33740;SDS011;20065;48.380;10.892;2022-09-20T13:58:31;7.97;;;1.20;;
33740;SDS011;20065;48.380;10.892;2022-09-20T14:01:30;2.33;;;0.80;;
33740;SDS011;20065;48.380;10.892;2022-09-20T14:04:24;4.80;;;1.13;;
33740;SDS011;20065;48.380;10.892;2022-09-20T14:07:13;3.77;;;1.50;;
33740;SDS011;20065;48.380;10.892;2022-09-20T14:09:59;8.47;;;1.30;;
33740;SDS011;20065;48.380;10.892;2022-09-20T14:12:46;4.53;;;1.23;;
33740;SDS011;20065;48.380;10.892;2022-09-20T14:15:38;3.87;;;1.40;;
33740;SDS011;20065;48.380;10.892;2022-09-20T14:18:30;3.33;;;1.10;;
33740;SDS011;20065;48.380;10.892;2022-09-20T14:21:21;7.30;;;1.20;;
33740;SDS011;20065;48.380;10.892;2022-09-20T14:27:19;3.87;;;0.80;;
33740;SDS011;20065;48.380;10.892;2022-09-20T14:30:26;5.80;;;1.03;;
33740;SDS011;20065;48.380;10.892;2022-09-20T14:33:15;5.23;;;1.17;;
33740;SDS011;20065;48.380;10.892;2022-09-20T14:36:05;5.53;;;1.50;;
33740;SDS011;20065;48.380;10.892;2022-09-20T14:39:04;8.40;;;1.70;;
33740;SDS011;20065;48.380;10.892;2022-09-20T14:41:59;9.50;;;1.40;;
33740;SDS011;20065;48.380;10.892;2022-09-20T14:44:48;9.47;;;1.80;;
33740;SDS011;20065;48.380;10.892;2022-09-20T14:47:37;5.60;;;1.30;;
33740;SDS011;20065;48.380;10.892;2022-09-20T14:50:43;2.93;;;1.00;;
33740;SDS011;20065;48.380;10.892;2022-09-20T14:53:31;5.60;;;1.40;;
33740;SDS011;20065;48.380;10.892;2022-09-20T14:56:25;5.27;;;1.83;;
33740;SDS011;20065;48.380;10.892;2022-09-20T14:59:19;5.10;;;1.20;;
33740;SDS011;20065;48.380;10.892;2022-09-20T15:02:10;7.53;;;1.20;;
33740;SDS011;20065;48.380;10.892;2022-09-20T15:04:59;7.33;;;1.50;;
33740;SDS011;20065;48.380;10.892;2022-09-20T15:07:46;5.67;;;1.43;;
33740;SDS011;20065;48.380;10.892;2022-09-20T15:10:32;8.40;;;1.40;;
33740;SDS011;20065;48.380;10.892;2022-09-20T15:13:19;6.23;;;1.70;;
33740;SDS011;20065;48.380;10.892;2022-09-20T15:16:05;5.20;;;1.40;;
33740;SDS011;20065;48.380;10.892;2022-09-20T15:18:51;5.47;;;1.30;;
33740;SDS011;20065;48.380;10.892;2022-09-20T15:21:38;5.73;;;1.90;;
33740;SDS011;20065;48.380;10.892;2022-09-20T15:24:24;6.40;;;1.20;;
33740;SDS011;20065;48.380;10.892;2022-09-20T15:27:10;9.17;;;1.70;;
33740;SDS011;20065;48.380;10.892;2022-09-20T15:29:57;9.77;;;1.70;;
33740;SDS011;20065;48.380;10.892;2022-09-20T15:32:43;9.13;;;1.70;;
33740;SDS011;20065;48.380;10.892;2022-09-20T15:35:31;12.10;;;1.83;;
33740;SDS011;20065;48.380;10.892;2022-09-20T15:38:17;10.87;;;1.87;;
33740;SDS011;20065;48.380;10.892;2022-09-20T15:41:03;7.70;;;1.27;;
33740;SDS011;20065;48.380;10.892;2022-09-20T15:43:50;10.10;;;1.47;;
33740;SDS011;20065;48.380;10.892;2022-09-20T15:46:36;6.40;;;2.03;;
33740;SDS011;20065;48.380;10.892;2022-09-20T15:49:22;5.83;;;1.60;;
33740;SDS011;20065;48.380;10.892;2022-09-20T15:52:08;6.53;;;1.70;;
33740;SDS011;20065;48.380;10.892;2022-09-20T15:54:55;6.70;;;1.40;;
33740;SDS011;20065;48.380;10.892;2022-09-20T15:57:44;7.93;;;1.60;;
33740;SDS011;20065;48.380;10.892;2022-09-20T16:00:31;5.67;;;2.10;;
33740;SDS011;20065;48.380;10.892;2022-09-20T16:03:18;8.27;;;1.60;;
33740;SDS011;20065;48.380;10.892;2022-09-20T16:06:05;9.70;;;1.70;;
33740;SDS011;20065;48.380;10.892;2022-09-20T16:08:52;6.07;;;1.70;;
33740;SDS011;20065;48.380;10.892;2022-09-20T16:11:40;6.03;;;2.10;;
33740;SDS011;20065;48.380;10.892;2022-09-20T16:14:26;11.20;;;2.27;;
33740;SDS011;20065;48.380;10.892;2022-09-20T16:17:12;8.03;;;1.73;;
33740;SDS011;20065;48.380;10.892;2022-09-20T16:19:59;3.40;;;1.50;;
33740;SDS011;20065;48.380;10.892;2022-09-20T16:22:45;7.03;;;2.20;;
33740;SDS011;20065;48.380;10.892;2022-09-20T16:25:31;6.90;;;1.93;;
33740;SDS011;20065;48.380;10.892;2022-09-20T16:28:17;8.50;;;1.57;;
33740;SDS011;20065;48.380;10.892;2022-09-20T16:31:04;8.30;;;1.70;;
33740;SDS011;20065;48.380;10.892;2022-09-20T16:33:51;7.60;;;1.90;;
33740;SDS011;20065;48.380;10.892;2022-09-20T16:36:37;8.33;;;1.90;;
33740;SDS011;20065;48.380;10.892;2022-09-20T16:39:29;6.97;;;1.90;;
33740;SDS011;20065;48.380;10.892;2022-09-20T16:42:16;8.07;;;2.00;;
33740;SDS011;20065;48.380;10.892;2022-09-20T16:45:03;6.40;;;1.90;;
33740;SDS011;20065;48.380;10.892;2022-09-20T16:47:49;5.83;;;1.63;;
33740;SDS011;20065;48.380;10.892;2022-09-20T16:50:35;6.37;;;1.57;;
33740;SDS011;20065;48.380;10.892;2022-09-20T16:53:22;8.90;;;2.07;;
33740;SDS011;20065;48.380;10.892;2022-09-20T16:56:17;3.80;;;1.87;;
33740;SDS011;20065;48.380;10.892;2022-09-20T16:59:06;9.23;;;2.00;;
33740;SDS011;20065;48.380;10.892;2022-09-20T17:01:52;10.33;;;2.30;;
33740;SDS011;20065;48.380;10.892;2022-09-20T17:04:38;8.93;;;1.80;;
33740;SDS011;20065;48.380;10.892;2022-09-20T17:07:27;10.47;;;2.27;;
33740;SDS011;20065;48.380;10.892;2022-09-20T17:10:15;6.90;;;1.50;;
33740;SDS011;20065;48.380;10.892;2022-09-20T17:13:02;6.63;;;1.40;;
33740;SDS011;20065;48.380;10.892;2022-09-20T17:15:58;4.57;;;1.77;;
33740;SDS011;20065;48.380;10.892;2022-09-20T17:18:52;12.20;;;2.07;;
33740;SDS011;20065;48.380;10.892;2022-09-20T17:21:41;7.30;;;2.00;;
33740;SDS011;20065;48.380;10.892;2022-09-20T17:24:34;7.60;;;2.10;;
33740;SDS011;20065;48.380;10.892;2022-09-20T17:27:20;5.20;;;1.80;;
33740;SDS011;20065;48.380;10.892;2022-09-20T17:30:06;4.60;;;1.90;;
33740;SDS011;20065;48.380;10.892;2022-09-20T17:32:54;9.10;;;1.97;;
33740;SDS011;20065;48.380;10.892;2022-09-20T17:35:48;4.90;;;1.70;;
33740;SDS011;20065;48.380;10.892;2022-09-20T17:38:35;5.07;;;1.87;;
33740;SDS011;20065;48.380;10.892;2022-09-20T17:41:23;6.70;;;1.80;;
33740;SDS011;20065;48.380;10.892;2022-09-20T17:44:10;8.60;;;1.90;;
33740;SDS011;20065;48.380;10.892;2022-09-20T17:46:56;6.23;;;2.00;;
33740;SDS011;20065;48.380;10.892;2022-09-20T17:49:42;4.90;;;1.80;;
33740;SDS011;20065;48.380;10.892;2022-09-20T17:52:28;5.70;;;1.63;;
33740;SDS011;20065;48.380;10.892;2022-09-20T17:55:15;8.23;;;2.20;;
33740;SDS011;20065;48.380;10.892;2022-09-20T17:58:01;9.17;;;1.80;;
33740;SDS011;20065;48.380;10.892;2022-09-20T18:00:47;7.93;;;2.03;;
33740;SDS011;20065;48.380;10.892;2022-09-20T18:03:34;7.10;;;1.40;;
33740;SDS011;20065;48.380;10.892;2022-09-20T18:06:32;7.30;;;2.07;;
33740;SDS011;20065;48.380;10.892;2022-09-20T18:09:31;7.47;;;2.08;;
33740;SDS011;20065;48.380;10.892;2022-09-20T18:12:17;10.67;;;2.60;;
33740;SDS011;20065;48.380;10.892;2022-09-20T18:15:03;5.63;;;1.80;;
33740;SDS011;20065;48.380;10.892;2022-09-20T18:17:50;7.03;;;1.93;;
33740;SDS011;20065;48.380;10.892;2022-09-20T18:20:36;6.23;;;1.70;;
33740;SDS011;20065;48.380;10.892;2022-09-20T18:23:22;8.32;;;2.58;;
33740;SDS011;20065;48.380;10.892;2022-09-20T18:26:21;6.05;;;2.70;;
33740;SDS011;20065;48.380;10.892;2022-09-20T18:29:12;4.40;;;1.93;;
33740;SDS011;20065;48.380;10.892;2022-09-20T18:32:02;4.00;;;1.53;;
33740;SDS011;20065;48.380;10.892;2022-09-20T18:34:49;5.30;;;1.90;;
33740;SDS011;20065;48.380;10.892;2022-09-20T18:37:35;6.10;;;1.90;;
33740;SDS011;20065;48.380;10.892;2022-09-20T18:40:22;3.78;;;1.23;;
33740;SDS011;20065;48.380;10.892;2022-09-20T18:43:08;3.83;;;1.10;;
33740;SDS011;20065;48.380;10.892;2022-09-20T18:45:55;4.60;;;1.37;;
33740;SDS011;20065;48.380;10.892;2022-09-20T18:48:42;2.70;;;1.10;;
33740;SDS011;20065;48.380;10.892;2022-09-20T18:51:28;3.27;;;1.00;;
33740;SDS011;20065;48.380;10.892;2022-09-20T18:54:15;2.40;;;0.90;;
33740;SDS011;20065;48.380;10.892;2022-09-20T18:57:02;2.87;;;0.80;;
33740;SDS011;20065;48.380;10.892;2022-09-20T18:59:48;3.00;;;0.95;;
33740;SDS011;20065;48.380;10.892;2022-09-20T19:02:40;5.32;;;1.45;;
33740;SDS011;20065;48.380;10.892;2022-09-20T19:05:43;3.73;;;1.43;;
33740;SDS011;20065;48.380;10.892;2022-09-20T19:11:57;3.88;;;1.48;;
33740;SDS011;20065;48.380;10.892;2022-09-20T19:14:53;3.08;;;1.30;;
33740;SDS011;20065;48.380;10.892;2022-09-20T19:21:16;6.13;;;1.90;;
33740;SDS011;20065;48.380;10.892;2022-09-20T19:26:56;7.72;;;3.03;;
33740;SDS011;20065;48.380;10.892;2022-09-20T19:29:43;6.47;;;2.15;;
33740;SDS011;20065;48.380;10.892;2022-09-20T19:32:29;5.80;;;2.85;;
33740;SDS011;20065;48.380;10.892;2022-09-20T19:35:21;14.50;;;3.35;;
33740;SDS011;20065;48.380;10.892;2022-09-20T19:38:29;8.68;;;3.47;;
33740;SDS011;20065;48.380;10.892;2022-09-20T19:50:46;5.00;;;2.53;;
33740;SDS011;20065;48.380;10.892;2022-09-20T19:53:37;2.95;;;1.48;;
33740;SDS011;20065;48.380;10.892;2022-09-20T19:56:24;7.63;;;1.30;;
33740;SDS011;20065;48.380;10.892;2022-09-20T19:59:12;3.33;;;1.50;;
33740;SDS011;20065;48.380;10.892;2022-09-20T20:02:00;3.88;;;1.60;;
33740;SDS011;20065;48.380;10.892;2022-09-20T20:04:46;7.75;;;1.63;;
33740;SDS011;20065;48.380;10.892;2022-09-20T20:07:34;3.90;;;1.63;;
33740;SDS011;20065;48.380;10.892;2022-09-20T20:10:52;7.47;;;1.80;;
33740;SDS011;20065;48.380;10.892;2022-09-20T20:13:44;4.78;;;1.80;;
33740;SDS011;20065;48.380;10.892;2022-09-20T20:26:25;6.45;;;2.65;;
33740;SDS011;20065;48.380;10.892;2022-09-20T20:29:11;4.70;;;2.55;;
33740;SDS011;20065;48.380;10.892;2022-09-20T20:31:58;6.50;;;2.30;;
33740;SDS011;20065;48.380;10.892;2022-09-20T20:34:44;4.85;;;2.10;;
33740;SDS011;20065;48.380;10.892;2022-09-20T20:37:32;6.57;;;2.20;;
33740;SDS011;20065;48.380;10.892;2022-09-20T20:40:19;4.63;;;1.90;;
33740;SDS011;20065;48.380;10.892;2022-09-20T20:43:05;3.85;;;1.70;;
33740;SDS011;20065;48.380;10.892;2022-09-20T20:45:53;4.95;;;2.85;;
33740;SDS011;20065;48.380;10.892;2022-09-20T20:48:40;7.57;;;2.78;;
33740;SDS011;20065;48.380;10.892;2022-09-20T20:51:26;5.93;;;2.70;;
33740;SDS011;20065;48.380;10.892;2022-09-20T20:54:12;9.43;;;2.60;;
33740;SDS011;20065;48.380;10.892;2022-09-20T20:56:59;4.95;;;2.20;;
33740;SDS011;20065;48.380;10.892;2022-09-20T20:59:47;5.10;;;2.35;;
33740;SDS011;20065;48.380;10.892;2022-09-20T21:02:33;7.05;;;3.05;;
33740;SDS011;20065;48.380;10.892;2022-09-20T21:05:19;4.65;;;2.70;;
33740;SDS011;20065;48.380;10.892;2022-09-20T21:08:08;7.97;;;3.22;;
33740;SDS011;20065;48.380;10.892;2022-09-20T21:10:59;6.13;;;3.05;;
33740;SDS011;20065;48.380;10.892;2022-09-20T21:13:47;6.05;;;2.92;;
33740;SDS011;20065;48.380;10.892;2022-09-20T21:16:34;11.60;;;2.90;;
33740;SDS011;20065;48.380;10.892;2022-09-20T21:19:22;6.18;;;3.25;;
33740;SDS011;20065;48.380;10.892;2022-09-20T21:22:08;5.22;;;2.55;;
33740;SDS011;20065;48.380;10.892;2022-09-20T21:24:54;5.72;;;3.25;;
33740;SDS011;20065;48.380;10.892;2022-09-20T21:27:40;6.65;;;2.97;;
33740;SDS011;20065;48.380;10.892;2022-09-20T21:30:27;7.85;;;2.65;;
33740;SDS011;20065;48.380;10.892;2022-09-20T21:33:13;7.53;;;2.90;;
33740;SDS011;20065;48.380;10.892;2022-09-20T21:35:59;9.75;;;2.90;;
33740;SDS011;20065;48.380;10.892;2022-09-20T21:38:46;4.40;;;2.42;;
33740;SDS011;20065;48.380;10.892;2022-09-20T21:41:33;4.55;;;1.95;;
33740;SDS011;20065;48.380;10.892;2022-09-20T21:44:21;7.10;;;2.92;;
33740;SDS011;20065;48.380;10.892;2022-09-20T21:47:07;5.07;;;2.53;;
33740;SDS011;20065;48.380;10.892;2022-09-20T21:49:54;5.90;;;2.75;;
33740;SDS011;20065;48.380;10.892;2022-09-20T21:52:43;5.55;;;2.85;;
33740;SDS011;20065;48.380;10.892;2022-09-20T21:55:32;10.15;;;3.45;;
33740;SDS011;20065;48.380;10.892;2022-09-20T21:58:18;7.63;;;3.67;;
33740;SDS011;20065;48.380;10.892;2022-09-20T22:01:06;6.55;;;3.30;;
33740;SDS011;20065;48.380;10.892;2022-09-20T22:03:58;6.07;;;3.03;;
33740;SDS011;20065;48.380;10.892;2022-09-20T22:06:45;6.50;;;2.80;;
33740;SDS011;20065;48.380;10.892;2022-09-20T22:09:31;6.43;;;3.40;;
33740;SDS011;20065;48.380;10.892;2022-09-20T22:12:17;6.88;;;3.40;;
33740;SDS011;20065;48.380;10.892;2022-09-20T22:15:03;5.93;;;3.03;;
33740;SDS011;20065;48.380;10.892;2022-09-20T22:17:50;7.80;;;3.20;;